Ana Sayfa
METAR-TAF:

METAR-TAF

Havaalanları :

Dire Dawa, Etiyopya

Enlem: 09-36N, Boylam: 041-52E, yükseklik: 1146 m

METAR: eksik

Saat: 13:30 (10:30 UTC)

Tahmin

Rapor saat 03:30 UTC de 7 saat ve 0 dakika önce yapıldı.
Ayın 24'si saat 06 UTC'den ayın 25'si saat 12 UTC'ye kadar geçerli Tahmin
Rüzgar güney/güneydoğudan 7 kt
Görüş mesafesi 10 km veya daha fazla
2800 ft yükseklikte parçalı bulutlu
12000 ft yükseklikte az bulutlu
Dönüşüyor
ayın 24'si saat 07 UTC'den ayın 24'si saat 11 UTC'ye kadar
Rüzgar kuzey/kuzeybatıdan 6 kt
2600 ft yükseklikte parçalı bulutlu

TAF: HADR 240330Z 2406/2512 16007KT 9999 SCT028 FEW120 BECMG 2407/2411 34006KT SCT026

4.000'den fazla havaalanı için hava durumu gözlemleri ve tahminleri (METAR ve TAF raporları).

Kullanılabilir istasyonlar harita üzerinde sarı ve kırmızı noktalarla gösterilir.

İstasyonun adını görmek için fareyi noktanın üzerinde gezdirin.

Sonrasında hava gözlem ve tahminlerini görmek için tıklayın.

Haritayı değiştirmek için: yaklaştırmak için siyah artı işaretli yeşil düğmeye ve uzaklaştırmak için de eksi işaretli düğmeye hızla tıklayın; bitişik haritalar için yeşil okları kullanın.


METAR-TAF: